createdAt,value
2022-12-22T00:02:42.159Z,9.97
2022-12-22T00:05:36.942Z,10.30
2022-12-22T00:08:25.626Z,9.90
2022-12-22T00:11:13.894Z,9.67
2022-12-22T00:14:04.605Z,9.07
2022-12-22T00:16:54.555Z,9.53
2022-12-22T00:19:40.976Z,10.07
2022-12-22T00:22:33.481Z,8.60
2022-12-22T00:25:19.062Z,9.07
2022-12-22T00:28:05.886Z,8.73
2022-12-22T00:30:53.506Z,9.10
2022-12-22T00:33:39.939Z,9.23
2022-12-22T00:36:30.575Z,8.90
2022-12-22T00:39:17.961Z,8.90
2022-12-22T00:42:03.724Z,8.60
2022-12-22T00:44:49.235Z,8.77
2022-12-22T00:47:43.775Z,9.10
2022-12-22T00:50:30.086Z,9.23
2022-12-22T00:53:17.417Z,9.13
2022-12-22T00:56:03.190Z,12.50
2022-12-22T00:58:48.900Z,8.97
2022-12-22T01:01:34.892Z,11.00
2022-12-22T01:04:22.033Z,8.90
2022-12-22T01:07:07.859Z,9.23
2022-12-22T01:09:54.581Z,8.70
2022-12-22T01:12:43.686Z,11.00
2022-12-22T01:15:33.490Z,9.80
2022-12-22T01:18:19.302Z,10.73
2022-12-22T01:21:06.361Z,10.40
2022-12-22T01:23:52.221Z,11.33
2022-12-22T01:26:37.638Z,9.43
2022-12-22T01:29:23.089Z,10.67
2022-12-22T01:32:08.978Z,10.00
2022-12-22T01:34:54.750Z,11.80
2022-12-22T01:37:41.996Z,10.17
2022-12-22T01:40:35.139Z,10.43
2022-12-22T01:43:34.478Z,10.67
2022-12-22T01:46:39.774Z,11.03
2022-12-22T01:49:30.907Z,10.43
2022-12-22T01:52:16.980Z,11.03
2022-12-22T01:55:04.726Z,11.60
2022-12-22T01:57:52.577Z,11.97
2022-12-22T02:00:38.795Z,11.83
2022-12-22T02:03:34.845Z,10.80
2022-12-22T02:06:34.115Z,10.23
2022-12-22T02:09:42.102Z,9.50
2022-12-22T02:12:47.321Z,10.37
2022-12-22T02:15:44.616Z,9.80
2022-12-22T02:18:37.760Z,9.50
2022-12-22T02:21:29.852Z,8.40
2022-12-22T02:24:37.497Z,9.87
2022-12-22T02:27:28.436Z,8.40
2022-12-22T02:30:18.991Z,10.20
2022-12-22T02:33:09.781Z,8.60
2022-12-22T02:36:25.673Z,9.33
2022-12-22T02:39:28.693Z,8.87
2022-12-22T02:42:33.092Z,9.07
2022-12-22T02:45:37.076Z,9.80
2022-12-22T02:48:31.759Z,10.43
2022-12-22T02:51:24.499Z,9.77
2022-12-22T02:54:11.813Z,8.63
2022-12-22T02:57:00.135Z,9.50
2022-12-22T02:59:46.983Z,8.73
2022-12-22T03:02:34.898Z,8.53
2022-12-22T03:05:20.575Z,11.10
2022-12-22T03:08:08.772Z,9.27
2022-12-22T03:10:55.166Z,9.40
2022-12-22T03:13:40.962Z,8.77
2022-12-22T03:16:27.916Z,8.03
2022-12-22T03:19:13.694Z,9.00
2022-12-22T03:21:59.453Z,7.50
2022-12-22T03:24:45.169Z,9.57
2022-12-22T03:27:13.304Z,8.00
2022-12-22T03:29:41.412Z,7.87
2022-12-22T03:32:10.903Z,10.00
2022-12-22T03:34:39.317Z,7.33
2022-12-22T03:37:07.421Z,9.13
2022-12-22T03:39:35.857Z,9.10
2022-12-22T03:42:21.775Z,8.60
2022-12-22T03:45:07.328Z,7.63
2022-12-22T03:47:36.764Z,8.27
2022-12-22T03:50:05.733Z,8.20
2022-12-22T03:52:33.877Z,8.40
2022-12-22T03:55:01.833Z,9.40
2022-12-22T03:57:29.980Z,8.33
2022-12-22T03:59:58.085Z,8.33
2022-12-22T04:02:26.316Z,7.77
2022-12-22T04:04:55.895Z,7.80
2022-12-22T04:07:23.989Z,7.40
2022-12-22T04:10:09.457Z,7.90
2022-12-22T04:12:55.881Z,8.80
2022-12-22T04:15:25.325Z,7.13
2022-12-22T04:17:54.513Z,7.37
2022-12-22T04:20:27.921Z,6.90
2022-12-22T04:22:57.378Z,6.73
2022-12-22T04:25:26.668Z,7.63
2022-12-22T04:27:54.799Z,7.67
2022-12-22T04:30:22.907Z,7.33
2022-12-22T04:32:51.007Z,6.03
2022-12-22T04:35:19.336Z,6.73
2022-12-22T04:37:48.804Z,6.10
2022-12-22T04:40:17.094Z,6.47
2022-12-22T04:42:45.195Z,7.13
2022-12-22T04:45:13.304Z,7.00
2022-12-22T04:47:41.458Z,6.60
2022-12-22T04:50:10.715Z,7.03
2022-12-22T04:52:39.356Z,5.67
2022-12-22T04:55:10.380Z,6.40
2022-12-22T04:57:40.926Z,6.07
2022-12-22T05:00:11.515Z,5.60
2022-12-22T05:02:39.733Z,5.87
2022-12-22T05:05:09.860Z,5.07
2022-12-22T05:07:38.455Z,6.40
2022-12-22T05:10:10.470Z,5.03
2022-12-22T05:12:57.026Z,5.40
2022-12-22T05:15:28.499Z,6.20
2022-12-22T05:17:57.443Z,5.30
2022-12-22T05:20:26.384Z,5.20
2022-12-22T05:22:56.375Z,5.37
2022-12-22T05:25:29.829Z,5.97
2022-12-22T05:27:58.727Z,4.70
2022-12-22T05:30:27.137Z,5.33
2022-12-22T05:32:55.296Z,6.40
2022-12-22T05:35:23.404Z,5.00
2022-12-22T05:37:51.525Z,5.10
2022-12-22T05:40:19.818Z,5.90
2022-12-22T05:42:49.319Z,5.40
2022-12-22T05:45:20.150Z,5.77
2022-12-22T05:47:51.937Z,5.00
2022-12-22T05:50:24.554Z,5.50
2022-12-22T05:52:52.859Z,5.27
2022-12-22T05:55:21.245Z,5.13
2022-12-22T05:57:50.843Z,5.17
2022-12-22T06:00:20.329Z,5.73
2022-12-22T06:02:48.586Z,5.70
2022-12-22T06:05:16.886Z,5.83
2022-12-22T06:07:44.983Z,6.73
2022-12-22T06:10:16.341Z,5.60
2022-12-22T06:12:45.007Z,7.00
2022-12-22T06:15:16.295Z,5.60
2022-12-22T06:17:45.515Z,5.50
2022-12-22T06:20:15.357Z,6.90
2022-12-22T06:22:43.606Z,5.30
2022-12-22T06:25:17.578Z,5.30
2022-12-22T06:27:46.716Z,6.53
2022-12-22T06:30:17.553Z,5.63
2022-12-22T06:32:45.681Z,6.17
2022-12-22T06:35:13.810Z,5.90
2022-12-22T06:37:42.556Z,5.77
2022-12-22T06:40:11.975Z,5.50
2022-12-22T06:43:00.826Z,5.20
2022-12-22T06:45:36.231Z,8.63
2022-12-22T06:48:04.781Z,5.57
2022-12-22T06:50:32.920Z,5.57
2022-12-22T06:53:01.466Z,5.00
2022-12-22T06:55:29.591Z,5.10
2022-12-22T06:57:57.791Z,5.77
2022-12-22T07:00:26.189Z,4.93
2022-12-22T07:02:56.024Z,4.17
2022-12-22T07:05:25.259Z,5.00
2022-12-22T07:07:53.986Z,4.47
2022-12-22T07:10:42.559Z,5.13
2022-12-22T07:13:20.408Z,5.67
2022-12-22T07:15:55.463Z,5.47
2022-12-22T07:18:30.708Z,4.53
2022-12-22T07:20:59.117Z,6.80
2022-12-22T07:23:27.855Z,4.03
2022-12-22T07:25:56.112Z,4.23
2022-12-22T07:28:24.730Z,5.13
2022-12-22T07:30:54.197Z,4.80
2022-12-22T07:33:22.870Z,4.10
2022-12-22T07:36:03.932Z,3.90
2022-12-22T07:38:38.326Z,5.83
2022-12-22T07:41:28.887Z,3.70
2022-12-22T07:43:58.798Z,3.83
2022-12-22T07:46:29.406Z,4.90
2022-12-22T07:49:15.504Z,4.40
2022-12-22T07:51:45.469Z,4.47
2022-12-22T07:54:16.639Z,4.30
2022-12-22T07:56:46.767Z,4.17
2022-12-22T07:59:17.051Z,4.30
2022-12-22T08:01:47.181Z,4.23
2022-12-22T08:04:16.745Z,4.23
2022-12-22T08:06:46.332Z,4.00
2022-12-22T08:09:21.471Z,4.13
2022-12-22T08:11:50.479Z,5.23
2022-12-22T08:14:18.933Z,5.70
2022-12-22T08:16:48.405Z,4.37
2022-12-22T08:19:17.813Z,4.33
2022-12-22T08:21:52.912Z,5.53
2022-12-22T08:24:22.793Z,5.53
2022-12-22T08:26:54.959Z,5.10
2022-12-22T08:29:28.824Z,4.47
2022-12-22T08:31:57.651Z,6.20
2022-12-22T08:34:27.162Z,4.53
2022-12-22T08:37:00.854Z,4.53
2022-12-22T08:39:33.700Z,5.37
2022-12-22T08:42:04.931Z,6.17
2022-12-22T08:44:35.147Z,4.67
2022-12-22T08:47:03.779Z,4.67
2022-12-22T08:49:34.080Z,4.50
2022-12-22T08:52:03.684Z,4.67
2022-12-22T08:54:51.729Z,5.93
2022-12-22T08:57:19.909Z,4.47
2022-12-22T08:59:48.671Z,5.47
2022-12-22T09:02:19.907Z,6.27
2022-12-22T09:04:48.688Z,5.90
2022-12-22T09:07:18.737Z,4.33
2022-12-22T09:09:46.870Z,5.67
2022-12-22T09:12:15.239Z,6.00
2022-12-22T09:14:43.372Z,3.80
2022-12-22T09:17:11.578Z,6.63
2022-12-22T09:19:40.154Z,5.67
2022-12-22T09:22:09.300Z,4.60
2022-12-22T09:24:38.834Z,4.50
2022-12-22T09:27:09.113Z,7.70
2022-12-22T09:29:37.915Z,3.90
2022-12-22T09:32:08.100Z,5.37
2022-12-22T09:34:37.656Z,4.13
2022-12-22T09:37:06.697Z,5.43
2022-12-22T09:39:34.862Z,5.13
2022-12-22T09:42:04.580Z,5.43
2022-12-22T09:44:35.775Z,4.70
2022-12-22T09:47:17.845Z,3.97
2022-12-22T09:49:46.878Z,5.93
2022-12-22T09:52:32.050Z,5.07
2022-12-22T09:55:00.615Z,4.60
2022-12-22T09:57:33.853Z,4.03
2022-12-22T10:00:14.454Z,3.90
2022-12-22T10:02:57.579Z,4.77
2022-12-22T10:05:39.220Z,5.37
2022-12-22T10:08:13.327Z,4.53
2022-12-22T10:10:42.077Z,3.90
2022-12-22T10:13:19.545Z,4.10
2022-12-22T10:15:48.408Z,3.63
2022-12-22T10:18:21.832Z,3.67
2022-12-22T10:21:10.743Z,4.17
2022-12-22T10:23:42.689Z,4.53
2022-12-22T10:26:27.955Z,3.63
2022-12-22T10:29:04.649Z,3.77
2022-12-22T10:31:35.531Z,3.67
2022-12-22T10:34:15.052Z,2.90
2022-12-22T10:36:48.188Z,5.33
2022-12-22T10:39:23.481Z,3.43
2022-12-22T10:41:56.181Z,4.07
2022-12-22T10:44:31.213Z,2.73
2022-12-22T10:47:01.860Z,2.87
2022-12-22T10:52:15.889Z,1.73
2022-12-22T10:54:46.029Z,2.10
2022-12-22T10:57:31.133Z,1.70
2022-12-22T11:00:04.056Z,1.27
2022-12-22T11:02:38.038Z,1.53
2022-12-22T11:05:09.889Z,1.10
2022-12-22T11:07:41.686Z,1.23
2022-12-22T11:10:19.592Z,1.93
2022-12-22T11:13:23.673Z,1.00
2022-12-22T11:16:03.529Z,1.67
2022-12-22T11:19:03.005Z,1.43
2022-12-22T11:21:46.336Z,1.20
2022-12-22T11:24:35.272Z,1.43
2022-12-22T11:27:24.157Z,0.63
2022-12-22T11:30:09.247Z,1.17
2022-12-22T11:33:08.357Z,1.00
2022-12-22T11:35:52.560Z,2.03
2022-12-22T11:38:45.734Z,1.27
2022-12-22T11:41:42.852Z,1.40
2022-12-22T11:44:46.757Z,2.03
2022-12-22T11:47:29.974Z,2.90
2022-12-22T11:51:00.992Z,1.03
2022-12-22T11:53:55.035Z,3.00
2022-12-22T11:56:26.132Z,1.43
2022-12-22T11:59:24.326Z,1.57
2022-12-22T12:02:36.077Z,1.45
2022-12-22T12:05:39.514Z,1.10
2022-12-22T12:08:23.411Z,0.97
2022-12-22T12:10:58.957Z,1.10
2022-12-22T12:13:39.654Z,2.00
2022-12-22T12:16:21.433Z,1.07
2022-12-22T12:19:28.817Z,0.60
2022-12-22T12:22:01.446Z,0.73
2022-12-22T12:24:55.603Z,0.90
2022-12-22T12:27:48.445Z,0.90
2022-12-22T12:33:16.749Z,1.23
2022-12-22T12:35:58.164Z,1.17
2022-12-22T12:41:41.345Z,1.07
2022-12-22T12:44:14.893Z,1.43
2022-12-22T12:47:23.974Z,0.80
2022-12-22T12:50:40.201Z,0.73
2022-12-22T12:53:10.519Z,1.13
2022-12-22T12:56:09.619Z,2.03
2022-12-22T12:58:57.901Z,1.20
2022-12-22T13:01:59.241Z,2.20
2022-12-22T13:05:36.635Z,1.20
2022-12-22T13:08:21.219Z,1.03
2022-12-22T13:12:11.258Z,1.20
2022-12-22T13:14:59.240Z,1.40
2022-12-22T13:17:35.294Z,2.20
2022-12-22T13:20:04.872Z,3.10
2022-12-22T13:22:34.855Z,3.00
2022-12-22T13:25:04.944Z,1.97
2022-12-22T13:27:38.450Z,2.80
2022-12-22T13:30:13.459Z,2.50
2022-12-22T13:32:44.077Z,2.30
2022-12-22T13:35:30.861Z,3.20
2022-12-22T13:38:00.147Z,1.93
2022-12-22T13:40:31.952Z,2.13
2022-12-22T13:43:11.614Z,1.60
2022-12-22T13:45:44.392Z,2.83
2022-12-22T13:48:19.650Z,1.90
2022-12-22T13:50:52.419Z,3.87
2022-12-22T13:56:27.044Z,4.20
2022-12-22T13:59:01.999Z,2.33
2022-12-22T14:01:30.820Z,3.47
2022-12-22T14:04:04.283Z,2.00
2022-12-22T14:06:36.363Z,2.20
2022-12-22T14:09:16.813Z,2.50
2022-12-22T14:11:52.044Z,2.53
2022-12-22T14:14:27.045Z,2.20
2022-12-22T14:16:58.546Z,2.37
2022-12-22T14:19:31.885Z,3.17
2022-12-22T14:22:08.330Z,1.80
2022-12-22T14:24:43.987Z,1.70
2022-12-22T14:27:22.246Z,1.40
2022-12-22T14:29:53.068Z,3.23
2022-12-22T14:32:42.447Z,1.60
2022-12-22T14:35:32.212Z,1.40
2022-12-22T14:38:22.818Z,1.50
2022-12-22T14:40:56.768Z,1.47
2022-12-22T14:43:31.527Z,1.37
2022-12-22T14:46:09.043Z,2.17
2022-12-22T14:48:41.242Z,1.50
2022-12-22T14:51:09.549Z,2.87
2022-12-22T14:53:47.665Z,1.73
2022-12-22T14:56:18.497Z,3.07
2022-12-22T14:58:49.477Z,2.63
2022-12-22T15:01:28.108Z,2.60
2022-12-22T15:04:06.264Z,3.80
2022-12-22T15:06:41.588Z,3.20
2022-12-22T15:10:13.196Z,3.43
2022-12-22T15:12:21.450Z,3.57
2022-12-22T15:14:49.922Z,4.53
2022-12-22T15:17:26.536Z,4.20
2022-12-22T15:19:59.631Z,5.87
2022-12-22T15:22:27.777Z,6.13
2022-12-22T15:24:55.892Z,6.57
2022-12-22T15:27:23.994Z,6.50
2022-12-22T15:29:51.995Z,6.60
2022-12-22T15:32:21.452Z,8.07
2022-12-22T15:34:49.496Z,8.10
2022-12-22T15:37:17.730Z,8.03
2022-12-22T15:39:45.839Z,8.80
2022-12-22T15:42:13.922Z,8.30
2022-12-22T15:44:41.949Z,9.73
2022-12-22T15:47:13.565Z,9.57
2022-12-22T15:49:43.168Z,8.57
2022-12-22T15:52:14.644Z,10.57
2022-12-22T15:54:42.954Z,10.63
2022-12-22T15:57:14.527Z,10.53
2022-12-22T15:59:44.943Z,10.10
2022-12-22T16:02:14.640Z,9.23
2022-12-22T16:04:44.596Z,9.50
2022-12-22T16:07:15.650Z,10.90
2022-12-22T16:09:48.527Z,9.90
2022-12-22T16:12:19.962Z,9.40
2022-12-22T16:14:52.049Z,13.13
2022-12-22T16:17:22.645Z,10.30
2022-12-22T16:19:52.282Z,9.43
2022-12-22T16:22:27.637Z,9.67
2022-12-22T16:24:55.821Z,9.73
2022-12-22T16:27:24.403Z,8.40
2022-12-22T16:29:55.454Z,10.43
2022-12-22T16:32:26.621Z,9.87
2022-12-22T16:35:01.912Z,9.37
2022-12-22T16:37:30.287Z,9.83
2022-12-22T16:39:58.655Z,9.60
2022-12-22T16:45:22.650Z,8.57
2022-12-22T16:47:54.296Z,9.93
2022-12-22T16:50:32.605Z,10.60
2022-12-22T16:53:02.344Z,9.23
2022-12-22T16:55:31.521Z,10.50
2022-12-22T16:57:59.657Z,13.70
2022-12-22T17:00:31.520Z,10.73
2022-12-22T17:03:06.301Z,10.40
2022-12-22T17:05:44.704Z,8.67
2022-12-22T17:08:23.477Z,9.37
2022-12-22T17:10:54.099Z,8.50
2022-12-22T17:13:23.370Z,8.33
2022-12-22T17:15:51.475Z,9.63
2022-12-22T17:18:22.553Z,7.80
2022-12-22T17:20:56.658Z,8.80
2022-12-22T17:23:35.010Z,11.10
2022-12-22T17:26:07.936Z,9.43
2022-12-22T17:28:38.158Z,8.90
2022-12-22T17:31:06.980Z,9.87
2022-12-22T17:33:35.129Z,10.07
2022-12-22T17:36:05.180Z,10.93
2022-12-22T17:38:34.506Z,10.80
2022-12-22T17:41:03.201Z,12.77
2022-12-22T17:43:31.291Z,12.70
2022-12-22T17:45:59.712Z,11.27
2022-12-22T17:48:28.099Z,11.10
2022-12-22T17:50:56.521Z,10.73
2022-12-22T17:53:26.328Z,9.47
2022-12-22T17:56:09.934Z,9.90
2022-12-22T17:58:38.378Z,10.27
2022-12-22T18:01:06.972Z,10.67
2022-12-22T18:03:35.371Z,8.93
2022-12-22T18:06:03.752Z,10.23
2022-12-22T18:08:33.562Z,10.27
2022-12-22T18:11:03.451Z,8.53
2022-12-22T18:13:32.987Z,8.40
2022-12-22T18:16:01.391Z,8.37
2022-12-22T18:18:29.929Z,9.20
2022-12-22T18:21:06.521Z,8.53
2022-12-22T18:23:40.264Z,7.57
2022-12-22T18:26:14.809Z,8.40
2022-12-22T18:28:43.190Z,8.50
2022-12-22T18:31:11.619Z,7.73
2022-12-22T18:33:40.073Z,9.33
2022-12-22T18:36:15.464Z,8.23
2022-12-22T18:38:46.377Z,8.53
2022-12-22T18:41:20.210Z,10.13
2022-12-22T18:43:48.632Z,9.27
2022-12-22T18:46:17.164Z,10.47
2022-12-22T18:48:45.790Z,11.53
2022-12-22T18:51:20.383Z,10.00
2022-12-22T18:53:51.123Z,13.43
2022-12-22T18:56:20.072Z,15.63
2022-12-22T18:58:48.464Z,13.80
2022-12-22T19:01:22.600Z,13.23
2022-12-22T19:03:52.665Z,13.17
2022-12-22T19:06:22.608Z,13.70
2022-12-22T19:08:52.866Z,11.03
2022-12-22T19:11:25.991Z,13.83
2022-12-22T19:13:54.510Z,13.87
2022-12-22T19:16:26.613Z,16.90
2022-12-22T19:18:57.031Z,13.13
2022-12-22T19:21:25.835Z,13.80
2022-12-22T19:23:55.557Z,13.60
2022-12-22T19:26:26.359Z,16.37
2022-12-22T19:28:59.344Z,16.27
2022-12-22T19:31:30.564Z,13.50
2022-12-22T19:34:01.661Z,13.90
2022-12-22T19:36:31.556Z,14.13
2022-12-22T19:39:05.050Z,14.10
2022-12-22T19:41:42.928Z,15.57
2022-12-22T19:44:24.113Z,15.07
2022-12-22T19:46:53.707Z,14.63
2022-12-22T19:49:25.213Z,17.63
2022-12-22T19:51:53.657Z,16.60
2022-12-22T19:54:23.387Z,15.73
2022-12-22T19:56:54.458Z,14.40
2022-12-22T19:59:37.295Z,15.03
2022-12-22T20:02:25.917Z,12.47
2022-12-22T20:04:55.775Z,12.80
2022-12-22T20:07:26.591Z,13.63
2022-12-22T20:09:56.393Z,11.53
2022-12-22T20:12:31.385Z,14.03
2022-12-22T20:15:00.170Z,13.70
2022-12-22T20:17:28.846Z,14.17
2022-12-22T20:19:56.879Z,15.43
2022-12-22T20:22:25.558Z,16.47
2022-12-22T20:24:55.331Z,15.03
2022-12-22T20:27:30.841Z,12.93
2022-12-22T20:29:58.937Z,13.77
2022-12-22T20:32:28.448Z,13.00
2022-12-22T20:34:57.005Z,14.50
2022-12-22T20:37:25.516Z,16.47
2022-12-22T20:39:54.934Z,19.87
2022-12-22T20:42:25.583Z,14.37
2022-12-22T20:45:02.878Z,18.20
2022-12-22T20:47:33.220Z,16.73
2022-12-22T20:50:01.525Z,16.63
2022-12-22T20:52:29.547Z,18.00
2022-12-22T20:54:59.033Z,16.03
2022-12-22T20:57:28.617Z,16.47
2022-12-22T20:59:57.040Z,14.67
2022-12-22T21:02:28.955Z,16.20
2022-12-22T21:04:57.412Z,14.20
2022-12-22T21:07:26.017Z,17.17
2022-12-22T21:09:54.152Z,17.00
2022-12-22T21:12:23.600Z,17.50
2022-12-22T21:14:51.979Z,16.27
2022-12-22T21:17:20.676Z,18.17
2022-12-22T21:19:49.733Z,14.87
2022-12-22T21:22:17.852Z,15.53
2022-12-22T21:24:45.971Z,16.40
2022-12-22T21:27:21.063Z,16.57
2022-12-22T21:29:50.545Z,15.57
2022-12-22T21:32:18.662Z,15.53
2022-12-22T21:34:46.801Z,15.80
2022-12-22T21:37:20.315Z,15.60
2022-12-22T21:39:48.659Z,16.73
2022-12-22T21:42:17.887Z,16.43
2022-12-22T21:44:46.491Z,15.57
2022-12-22T21:47:21.060Z,17.33
2022-12-22T21:49:49.851Z,14.90
2022-12-22T21:52:17.954Z,16.83
2022-12-22T21:54:46.049Z,12.97
2022-12-22T21:57:16.850Z,13.47
2022-12-22T21:59:45.060Z,13.60
2022-12-22T22:02:19.234Z,12.53
2022-12-22T22:04:54.276Z,13.37
2022-12-22T22:07:23.398Z,12.67
2022-12-22T22:09:51.560Z,11.80
2022-12-22T22:12:36.846Z,11.23
2022-12-22T22:15:07.119Z,11.93
2022-12-22T22:17:36.695Z,15.20
2022-12-22T22:20:07.805Z,14.40
2022-12-22T22:22:35.950Z,14.73
2022-12-22T22:25:04.187Z,13.03
2022-12-22T22:27:32.321Z,15.67
2022-12-22T22:30:00.417Z,15.00
2022-12-22T22:32:28.895Z,12.63
2022-12-22T22:34:58.378Z,11.50
2022-12-22T22:37:26.614Z,10.57
2022-12-22T22:39:54.713Z,11.70
2022-12-22T22:42:23.008Z,10.90
2022-12-22T22:44:51.110Z,10.57
2022-12-22T22:47:19.219Z,9.40
2022-12-22T22:49:47.356Z,10.07
2022-12-22T22:52:16.913Z,7.87
2022-12-22T22:54:45.281Z,7.73
2022-12-22T22:57:13.495Z,8.00
2022-12-22T22:59:41.601Z,7.47
2022-12-22T23:02:10.730Z,8.50
2022-12-22T23:04:39.016Z,7.13
2022-12-22T23:07:07.102Z,7.10
2022-12-22T23:09:36.637Z,8.67
2022-12-22T23:12:05.462Z,8.00
2022-12-22T23:14:33.773Z,8.33
2022-12-22T23:17:01.917Z,7.87
2022-12-22T23:19:30.123Z,6.17
2022-12-22T23:21:58.312Z,8.33
2022-12-22T23:24:26.650Z,8.30
2022-12-22T23:26:56.130Z,8.07
2022-12-22T23:29:24.303Z,6.73
2022-12-22T23:31:52.558Z,7.80
2022-12-22T23:34:20.874Z,9.33
2022-12-22T23:36:49.069Z,6.27
2022-12-22T23:39:17.220Z,8.63
2022-12-22T23:41:45.383Z,7.03
2022-12-22T23:44:14.937Z,5.50
2022-12-22T23:46:43.235Z,6.03
2022-12-22T23:49:13.106Z,5.50
2022-12-22T23:51:41.221Z,6.17
2022-12-22T23:54:09.387Z,8.30
2022-12-22T23:56:37.572Z,5.70
2022-12-22T23:59:05.681Z,5.53
